My Meet Scores
Hailey Soriaga, Team Oswego Gymnastics - MyMeetScores.com
Top100 | Top Teams | Upcoming Meets | Completed Meets | Latest | Add Scores | Help| Support | Bookmark and Share

Hailey Soriaga, Team Oswego Gymnastics
Personal Bests
LevelVault BarsBeamFloorAA
49.2259.175 9.5509.55037.450
69.0009.300 9.2008.10035.600
XD9.4758.975 9.3759.55036.150
Scores on America's Top 100as of 03.31.2020
Year Level Vault Bars Beam Floor AA
2020 XD9.475

Click here to view our exclusive Top 100 Collection
Meet Scores
Date Meet Team Session Level Division Vault Bars Beam Floor AA
2020-03-06 2020 Flip'r Invitational Team Oswego Gymnastics 7 XD ALL AGES 9.050 1 8.550 2T 8.850 2 9.400 1 35.850 2
2020-02-21 Kinetic Classic Team Oswego Gymnastics 11 XD All 9.475 1 7.300 12 9.200 3 9.500 6T 35.475 9
2020-02-07 Harley Meet Womens - Midwest Twisters Team Oswego Gymnastics S01 XD Sr A 8.900 1T 7.150 9 7.600 10 9.125 4 32.775 8T
2020-01-24 King Arthur Invitational Team Oswego Gymnastics 10 XD All 9.225 1 6.900 4 7.600 3 9.550 2T 33.275 4
2019-04-05 2019 Illinois XG, XP, XD State Championships Team Oswego Gymnastics 1 XD JR 9.125 5 8.425 7 9.275 4 9.300 6T 36.125 4
2019-03-08 Lucky Invite Team Oswego Gymnastics B07 XD Jr A 8.850 1 8.900 1 7.900 1 9.000 2 34.650 1
2019-02-08 Midwest Twisters Harley Meet Womens Team Oswego Gymnastics S01 XD 13 un 8.350 11 7.150 11 7.950 11 8.900 7T 32.350 11
2018-12-14 2018 Aspire Classic Team Oswego Gymnastics 5B XD All 9.000 3 7.000 9 8.750 5T 8.725 9 33.475 9
2018-04-06 XCEL State Championships Team Oswego Gymnastics 8 XD JR 8.850 5 8.750 4 8.225 5 8.125 5 33.950 5
2018-03-02 2018 Flip'r Invitational Team Oswego Gymnastics 4 XD ALL Ages 9.100 1 8.925 2 9.075 1 9.050 2 36.150 1
2018-02-08 Hal's Harley-Davidson Invite Womens Team Oswego Gymnastics S01 XD 14 under 8.200 10T 8.975 2 9.350 1 8.875 9 35.400 3
2018-01-19 2018 Bravo Classic Team Oswego Gymnastics 11A XD All 8.800 2 7.600 3 8.500 1 9.025 3 33.925 3
2017-12-15 2017 Aspire Classic Team Oswego Gymnastics 8A XD All 8.500 5 8.575 3 9.375 2 9.050 5 35.500 3
2016-02-27 Let the Games Begin Team Oswego Gymnastics 4 6 9-10 9.000 2T 9.300 1 9.200 1 8.100 4T 35.600 2
2015-03-19 2015 Illinois Level 4 State Championship Team Oswego Gymnastics All 4 YouthA 9.225 5 9.175 6 9.550 2 9.500 2 37.450 2
2015-02-20 Midwest Open 2015 Team Oswego Gymnastics 8A 4 9 9.000 8 8.650 9 8.750 7 9.550 2 35.950 7
2015-02-14 2015 Great Western Invitational Team Oswego Gymnastics 6 4 Cowgirl 8.875 8 8.875 8 9.225 6 9.525 3 36.500 6
2014-03-13 2014 Illinois Level 4 State Meet Team Oswego Gymnastics 4 Child.B 8.500 28 8.600 23 9.100 22 9.275 11 35.475 23
2014-02-15 BIG Dream Classic 2014 Team Oswego Gymnastics 2A 4 Child A 8.900 6 8.050 8T 8.925 7 8.850 7 34.725 8
2014-01-31 Circle Of Stars Team Oswego Gymnastics 2 4 8 & under 8.750 4 8.500 2 8.700 13 9.250 5 35.200 5
Get your scores on
a t-shirt, pin, or hoodie

www.lazysuits.com